sensor_id;sensor_type;location;lat;lon;timestamp;pressure;altitude;pressure_sealevel;temperature;humidity
6208;BME280;3137;51.550;7.060;2023-12-20T00:00:25;101172.31;;;7.47;99.25
6208;BME280;3137;51.550;7.060;2023-12-20T00:02:51;101165.91;;;7.38;99.08
6208;BME280;3137;51.550;7.060;2023-12-20T00:05:18;101163.25;;;7.49;98.83
6208;BME280;3137;51.550;7.060;2023-12-20T00:07:44;101170.13;;;7.41;98.49
6208;BME280;3137;51.550;7.060;2023-12-20T00:10:11;101164.06;;;7.39;98.69
6208;BME280;3137;51.550;7.060;2023-12-20T00:12:39;101170.03;;;7.42;97.75
6208;BME280;3137;51.550;7.060;2023-12-20T00:15:07;101166.88;;;7.37;96.77
6208;BME280;3137;51.550;7.060;2023-12-20T00:17:33;101169.53;;;7.37;97.26
6208;BME280;3137;51.550;7.060;2023-12-20T00:20:00;101171.69;;;7.32;96.86
6208;BME280;3137;51.550;7.060;2023-12-20T00:22:26;101173.25;;;7.23;96.67
6208;BME280;3137;51.550;7.060;2023-12-20T00:24:53;101172.06;;;7.16;96.13
6208;BME280;3137;51.550;7.060;2023-12-20T00:27:19;101182.44;;;7.19;96.17
6208;BME280;3137;51.550;7.060;2023-12-20T00:29:45;101193.31;;;7.16;95.73
6208;BME280;3137;51.550;7.060;2023-12-20T00:32:16;101187.75;;;7.08;95.59
6208;BME280;3137;51.550;7.060;2023-12-20T00:34:43;101194.97;;;7.06;95.35
6208;BME280;3137;51.550;7.060;2023-12-20T00:37:09;101193.28;;;7.05;95.74
6208;BME280;3137;51.550;7.060;2023-12-20T00:39:36;101189.78;;;7.05;95.91
6208;BME280;3137;51.550;7.060;2023-12-20T00:42:02;101192.31;;;7.06;95.84
6208;BME280;3137;51.550;7.060;2023-12-20T00:44:29;101194.13;;;7.06;96.18
6208;BME280;3137;51.550;7.060;2023-12-20T00:46:55;101204.41;;;6.99;96.55
6208;BME280;3137;51.550;7.060;2023-12-20T00:49:22;101212.03;;;7.04;96.72
6208;BME280;3137;51.550;7.060;2023-12-20T00:51:48;101204.75;;;7.06;96.98
6208;BME280;3137;51.550;7.060;2023-12-20T00:54:16;101209.22;;;7.05;97.00
6208;BME280;3137;51.550;7.060;2023-12-20T00:56:43;101207.66;;;7.03;96.61
6208;BME280;3137;51.550;7.060;2023-12-20T00:59:10;101201.59;;;7.01;96.83
6208;BME280;3137;51.550;7.060;2023-12-20T01:01:37;101207.66;;;7.03;96.39
6208;BME280;3137;51.550;7.060;2023-12-20T01:04:03;101194.47;;;7.01;96.48
6208;BME280;3137;51.550;7.060;2023-12-20T01:06:30;101197.38;;;6.98;96.45
6208;BME280;3137;51.550;7.060;2023-12-20T01:08:57;101193.63;;;7.01;96.59
6208;BME280;3137;51.550;7.060;2023-12-20T01:11:23;101199.78;;;7.01;96.20
6208;BME280;3137;51.550;7.060;2023-12-20T01:13:50;101211.03;;;6.94;96.15
6208;BME280;3137;51.550;7.060;2023-12-20T01:16:16;101213.78;;;6.92;96.14
6208;BME280;3137;51.550;7.060;2023-12-20T01:18:42;101210.66;;;6.98;95.91
6208;BME280;3137;51.550;7.060;2023-12-20T01:21:09;101211.03;;;6.94;95.41
6208;BME280;3137;51.550;7.060;2023-12-20T01:23:35;101228.06;;;6.91;95.07
6208;BME280;3137;51.550;7.060;2023-12-20T01:26:02;101224.66;;;6.89;95.12
6208;BME280;3137;51.550;7.060;2023-12-20T01:28:31;101230.72;;;6.91;94.79
6208;BME280;3137;51.550;7.060;2023-12-20T01:30:58;101221.28;;;6.87;94.15
6208;BME280;3137;51.550;7.060;2023-12-20T01:33:24;101212.91;;;6.80;93.55
6208;BME280;3137;51.550;7.060;2023-12-20T01:35:51;101216.75;;;6.76;93.75
6208;BME280;3137;51.550;7.060;2023-12-20T01:38:17;101217.25;;;6.70;93.70
6208;BME280;3137;51.550;7.060;2023-12-20T01:40:47;101230.97;;;6.64;93.71
6208;BME280;3137;51.550;7.060;2023-12-20T01:43:13;101226.00;;;6.60;94.03
6208;BME280;3137;51.550;7.060;2023-12-20T01:45:40;101228.88;;;6.57;93.54
6208;BME280;3137;51.550;7.060;2023-12-20T01:48:07;101224.00;;;6.51;94.24
6208;BME280;3137;51.550;7.060;2023-12-20T01:50:36;101219.22;;;6.56;94.18
6208;BME280;3137;51.550;7.060;2023-12-20T01:53:04;101218.47;;;6.54;93.59
6208;BME280;3137;51.550;7.060;2023-12-20T01:55:33;101218.69;;;6.51;93.60
6208;BME280;3137;51.550;7.060;2023-12-20T01:58:01;101217.00;;;6.50;93.41
6208;BME280;3137;51.550;7.060;2023-12-20T02:00:27;101221.59;;;6.48;93.84
6208;BME280;3137;51.550;7.060;2023-12-20T02:02:55;101218.94;;;6.48;93.93
6208;BME280;3137;51.550;7.060;2023-12-20T02:05:22;101218.53;;;6.41;94.47
6208;BME280;3137;51.550;7.060;2023-12-20T02:07:48;101221.75;;;6.33;94.19
6208;BME280;3137;51.550;7.060;2023-12-20T02:10:16;101223.44;;;6.34;94.27
6208;BME280;3137;51.550;7.060;2023-12-20T02:12:42;101222.94;;;6.29;94.59
6208;BME280;3137;51.550;7.060;2023-12-20T02:15:09;101222.22;;;6.27;94.92
6208;BME280;3137;51.550;7.060;2023-12-20T02:17:36;101225.34;;;6.32;94.81
6208;BME280;3137;51.550;7.060;2023-12-20T02:20:03;101215.59;;;6.33;95.14
6208;BME280;3137;51.550;7.060;2023-12-20T02:22:29;101216.34;;;6.35;94.64
6208;BME280;3137;51.550;7.060;2023-12-20T02:24:56;101210.94;;;6.36;94.46
6208;BME280;3137;51.550;7.060;2023-12-20T02:27:22;101207.63;;;6.33;94.58
6208;BME280;3137;51.550;7.060;2023-12-20T02:29:50;101215.59;;;6.33;94.61
6208;BME280;3137;51.550;7.060;2023-12-20T02:32:18;101214.97;;;6.29;94.36
6208;BME280;3137;51.550;7.060;2023-12-20T02:34:47;101217.28;;;6.34;94.34
6208;BME280;3137;51.550;7.060;2023-12-20T02:37:14;101217.28;;;6.34;94.30
6208;BME280;3137;51.550;7.060;2023-12-20T02:39:41;101221.75;;;6.33;94.04
6208;BME280;3137;51.550;7.060;2023-12-20T02:42:07;101228.16;;;6.31;94.35
6208;BME280;3137;51.550;7.060;2023-12-20T02:44:34;101217.53;;;6.31;93.92
6208;BME280;3137;51.550;7.060;2023-12-20T02:47:00;101215.19;;;6.26;94.47
6208;BME280;3137;51.550;7.060;2023-12-20T02:49:27;101212.03;;;6.21;94.34
6208;BME280;3137;51.550;7.060;2023-12-20T02:51:54;101212.38;;;6.17;94.61
6208;BME280;3137;51.550;7.060;2023-12-20T02:54:20;101222.47;;;6.12;94.48
6208;BME280;3137;51.550;7.060;2023-12-20T02:56:47;101219.41;;;6.05;95.13
6208;BME280;3137;51.550;7.060;2023-12-20T02:59:14;101216.53;;;6.08;94.96
6208;BME280;3137;51.550;7.060;2023-12-20T03:01:45;101229.19;;;6.05;94.84
6208;BME280;3137;51.550;7.060;2023-12-20T03:04:12;101230.25;;;6.02;95.00
6208;BME280;3137;51.550;7.060;2023-12-20T03:06:38;101224.72;;;6.05;94.70
6208;BME280;3137;51.550;7.060;2023-12-20T03:09:05;101230.13;;;6.04;94.71
6208;BME280;3137;51.550;7.060;2023-12-20T03:11:31;101226.53;;;6.05;94.44
6208;BME280;3137;51.550;7.060;2023-12-20T03:13:58;101222.91;;;6.06;94.41
6208;BME280;3137;51.550;7.060;2023-12-20T03:16:24;101221.13;;;6.06;93.76
6208;BME280;3137;51.550;7.060;2023-12-20T03:18:51;101216.75;;;6.05;93.72
6208;BME280;3137;51.550;7.060;2023-12-20T03:21:17;101217.81;;;6.03;93.45
6208;BME280;3137;51.550;7.060;2023-12-20T03:23:45;101211.88;;;5.99;93.85
6208;BME280;3137;51.550;7.060;2023-12-20T03:26:11;101218.16;;;5.98;94.04
6208;BME280;3137;51.550;7.060;2023-12-20T03:28:38;101215.84;;;5.93;94.10
6208;BME280;3137;51.550;7.060;2023-12-20T03:31:04;101218.50;;;5.93;93.92
6208;BME280;3137;51.550;7.060;2023-12-20T03:33:31;101218.59;;;5.92;93.58
6208;BME280;3137;51.550;7.060;2023-12-20T03:35:57;101212.75;;;5.87;93.53
6208;BME280;3137;51.550;7.060;2023-12-20T03:38:23;101212.97;;;5.84;94.04
6208;BME280;3137;51.550;7.060;2023-12-20T03:40:50;101214.00;;;5.81;94.20
6208;BME280;3137;51.550;7.060;2023-12-20T03:43:17;101205.56;;;5.76;94.05
6208;BME280;3137;51.550;7.060;2023-12-20T03:45:43;101206.50;;;5.75;93.90
6208;BME280;3137;51.550;7.060;2023-12-20T03:48:10;101217.03;;;5.77;93.77
6208;BME280;3137;51.550;7.060;2023-12-20T03:50:36;101205.13;;;5.70;93.90
6208;BME280;3137;51.550;7.060;2023-12-20T03:53:03;101213.84;;;5.72;94.03
6208;BME280;3137;51.550;7.060;2023-12-20T03:55:30;101215.97;;;5.67;94.41
6208;BME280;3137;51.550;7.060;2023-12-20T03:57:56;101227.97;;;5.72;94.26
6208;BME280;3137;51.550;7.060;2023-12-20T04:00:23;101232.28;;;5.73;94.18
6208;BME280;3137;51.550;7.060;2023-12-20T04:02:49;101228.91;;;5.71;94.45
6208;BME280;3137;51.550;7.060;2023-12-20T04:05:16;101213.63;;;5.75;94.68
6208;BME280;3137;51.550;7.060;2023-12-20T04:07:42;101204.72;;;5.76;94.85
6208;BME280;3137;51.550;7.060;2023-12-20T04:10:09;101200.03;;;5.79;94.72
6208;BME280;3137;51.550;7.060;2023-12-20T04:12:36;101200.25;;;5.76;94.63
6208;BME280;3137;51.550;7.060;2023-12-20T04:15:03;101202.91;;;5.76;94.66
6208;BME280;3137;51.550;7.060;2023-12-20T04:17:35;101194.09;;;5.76;95.12
6208;BME280;3137;51.550;7.060;2023-12-20T04:20:03;101193.88;;;5.79;95.26
6208;BME280;3137;51.550;7.060;2023-12-20T04:22:30;101197.13;;;5.82;95.13
6208;BME280;3137;51.550;7.060;2023-12-20T04:24:56;101197.38;;;5.79;95.15
6208;BME280;3137;51.550;7.060;2023-12-20T04:27:23;101200.03;;;5.79;94.81
6208;BME280;3137;51.550;7.060;2023-12-20T04:29:49;101201.91;;;5.77;94.89
6208;BME280;3137;51.550;7.060;2023-12-20T04:32:15;101205.66;;;5.75;95.04
6208;BME280;3137;51.550;7.060;2023-12-20T04:34:42;101203.00;;;5.75;94.82
6208;BME280;3137;51.550;7.060;2023-12-20T04:37:08;101209.16;;;5.75;94.96
6208;BME280;3137;51.550;7.060;2023-12-20T04:39:35;101213.63;;;5.75;94.81
6208;BME280;3137;51.550;7.060;2023-12-20T04:42:02;101201.28;;;5.74;95.41
6208;BME280;3137;51.550;7.060;2023-12-20T04:44:28;101209.88;;;5.77;95.04
6208;BME280;3137;51.550;7.060;2023-12-20T04:46:54;101212.53;;;5.77;94.83
6208;BME280;3137;51.550;7.060;2023-12-20T04:49:22;101210.88;;;5.76;95.04
6208;BME280;3137;51.550;7.060;2023-12-20T04:51:49;101215.31;;;5.76;95.09
6208;BME280;3137;51.550;7.060;2023-12-20T04:54:15;101217.03;;;5.77;94.87
6208;BME280;3137;51.550;7.060;2023-12-20T04:56:42;101216.38;;;5.73;95.21
6208;BME280;3137;51.550;7.060;2023-12-20T04:59:08;101215.97;;;5.67;94.68
6208;BME280;3137;51.550;7.060;2023-12-20T05:01:34;101212.38;;;5.68;94.59
6208;BME280;3137;51.550;7.060;2023-12-20T05:04:01;101218.53;;;5.68;94.83
6208;BME280;3137;51.550;7.060;2023-12-20T05:06:27;101215.97;;;5.67;94.75
6208;BME280;3137;51.550;7.060;2023-12-20T05:08:54;101217.66;;;5.68;94.83
6208;BME280;3137;51.550;7.060;2023-12-20T05:11:20;101208.00;;;5.67;94.39
6208;BME280;3137;51.550;7.060;2023-12-20T05:13:47;101203.41;;;5.69;94.40
6208;BME280;3137;51.550;7.060;2023-12-20T05:16:16;101217.66;;;5.68;94.65
6208;BME280;3137;51.550;7.060;2023-12-20T05:18:45;101213.84;;;5.72;94.41
6208;BME280;3137;51.550;7.060;2023-12-20T05:21:12;101228.81;;;5.73;94.88
6208;BME280;3137;51.550;7.060;2023-12-20T05:23:38;101221.47;;;5.76;94.62
6208;BME280;3137;51.550;7.060;2023-12-20T05:26:05;101207.03;;;5.80;94.80
6208;BME280;3137;51.550;7.060;2023-12-20T05:28:31;101213.38;;;5.78;94.51
6208;BME280;3137;51.550;7.060;2023-12-20T05:30:58;101202.69;;;5.79;94.53
6208;BME280;3137;51.550;7.060;2023-12-20T05:33:25;101199.16;;;5.79;94.50
6208;BME280;3137;51.550;7.060;2023-12-20T05:35:51;101189.63;;;5.76;94.96
6208;BME280;3137;51.550;7.060;2023-12-20T05:38:18;101195.56;;;5.80;94.65
6208;BME280;3137;51.550;7.060;2023-12-20T05:40:44;101200.34;;;5.75;93.71
6208;BME280;3137;51.550;7.060;2023-12-20T05:43:10;101204.47;;;5.79;94.07
6208;BME280;3137;51.550;7.060;2023-12-20T05:45:37;101202.56;;;5.81;94.37
6208;BME280;3137;51.550;7.060;2023-12-20T05:48:04;101195.56;;;5.80;94.04
6208;BME280;3137;51.550;7.060;2023-12-20T05:50:30;101203.41;;;5.81;94.40
6208;BME280;3137;51.550;7.060;2023-12-20T05:52:56;101206.28;;;5.78;94.38
6208;BME280;3137;51.550;7.060;2023-12-20T05:55:23;101197.47;;;5.78;94.12
6208;BME280;3137;51.550;7.060;2023-12-20T05:57:50;101188.34;;;5.82;93.90
6208;BME280;3137;51.550;7.060;2023-12-20T06:00:17;101194.72;;;5.79;94.29
6208;BME280;3137;51.550;7.060;2023-12-20T06:02:43;101192.78;;;5.81;93.84
6208;BME280;3137;51.550;7.060;2023-12-20T06:05:10;101195.44;;;5.81;94.20
6208;BME280;3137;51.550;7.060;2023-12-20T06:07:36;101195.25;;;5.84;93.71
6208;BME280;3137;51.550;7.060;2023-12-20T06:10:03;101200.97;;;5.78;94.11
6208;BME280;3137;51.550;7.060;2023-12-20T06:12:30;101194.28;;;5.85;93.95
6208;BME280;3137;51.550;7.060;2023-12-20T06:14:58;101196.28;;;5.82;93.67
6208;BME280;3137;51.550;7.060;2023-12-20T06:17:24;101200.41;;;5.86;93.85
6208;BME280;3137;51.550;7.060;2023-12-20T06:19:51;101193.53;;;5.83;93.92
6208;BME280;3137;51.550;7.060;2023-12-20T06:22:18;101195.25;;;5.84;94.30
6208;BME280;3137;51.550;7.060;2023-12-20T06:24:44;101197.69;;;5.87;93.52
6208;BME280;3137;51.550;7.060;2023-12-20T06:27:11;101204.91;;;5.85;93.49
6208;BME280;3137;51.550;7.060;2023-12-20T06:29:38;101203.84;;;5.88;93.83
6208;BME280;3137;51.550;7.060;2023-12-20T06:32:04;101204.16;;;5.83;94.25
6208;BME280;3137;51.550;7.060;2023-12-20T06:34:31;101203.75;;;5.89;93.88
6208;BME280;3137;51.550;7.060;2023-12-20T06:36:57;101200.41;;;5.86;93.80
6208;BME280;3137;51.550;7.060;2023-12-20T06:39:24;101207.47;;;5.87;93.27
6208;BME280;3137;51.550;7.060;2023-12-20T06:41:50;101212.34;;;5.80;93.41
6208;BME280;3137;51.550;7.060;2023-12-20T06:44:17;101210.00;;;5.88;93.34
6208;BME280;3137;51.550;7.060;2023-12-20T06:46:44;101198.56;;;5.88;93.34
6208;BME280;3137;51.550;7.060;2023-12-20T06:49:10;101201.59;;;5.94;93.38
6208;BME280;3137;51.550;7.060;2023-12-20T06:51:37;101203.53;;;5.92;93.70
6208;BME280;3137;51.550;7.060;2023-12-20T06:54:03;101202.69;;;5.92;93.02
6208;BME280;3137;51.550;7.060;2023-12-20T06:56:30;101204.06;;;5.97;92.97
6208;BME280;3137;51.550;7.060;2023-12-20T06:58:56;101208.84;;;5.92;92.78
6208;BME280;3137;51.550;7.060;2023-12-20T07:01:23;101201.72;;;5.93;93.16
6208;BME280;3137;51.550;7.060;2023-12-20T07:03:49;101194.72;;;5.92;93.24
6208;BME280;3137;51.550;7.060;2023-12-20T07:06:16;101188.31;;;5.94;92.96
6208;BME280;3137;51.550;7.060;2023-12-20T07:08:44;101191.63;;;5.98;92.94
6208;BME280;3137;51.550;7.060;2023-12-20T07:11:10;101187.78;;;6.02;92.57
6208;BME280;3137;51.550;7.060;2023-12-20T07:13:37;101191.78;;;6.08;92.46
6208;BME280;3137;51.550;7.060;2023-12-20T07:16:04;101192.97;;;6.04;91.99
6208;BME280;3137;51.550;7.060;2023-12-20T07:18:30;101192.66;;;6.08;92.46
6208;BME280;3137;51.550;7.060;2023-12-20T07:20:57;101191.06;;;6.06;92.33
6208;BME280;3137;51.550;7.060;2023-12-20T07:23:23;101191.94;;;6.06;92.02
6208;BME280;3137;51.550;7.060;2023-12-20T07:25:50;101201.56;;;6.07;92.43
6208;BME280;3137;51.550;7.060;2023-12-20T07:28:16;101202.53;;;6.06;92.51
6208;BME280;3137;51.550;7.060;2023-12-20T07:30:43;101197.72;;;6.11;92.54
6208;BME280;3137;51.550;7.060;2023-12-20T07:33:09;101207.38;;;6.12;91.84
6208;BME280;3137;51.550;7.060;2023-12-20T07:35:36;101198.47;;;6.13;92.29
6208;BME280;3137;51.550;7.060;2023-12-20T07:38:03;101195.38;;;6.19;92.24
6208;BME280;3137;51.550;7.060;2023-12-20T07:40:30;101194.53;;;6.19;91.89
6208;BME280;3137;51.550;7.060;2023-12-20T07:42:56;101198.03;;;6.19;91.68
6208;BME280;3137;51.550;7.060;2023-12-20T07:45:24;101202.81;;;6.14;91.65
6208;BME280;3137;51.550;7.060;2023-12-20T07:47:50;101193.78;;;6.17;91.76
6208;BME280;3137;51.550;7.060;2023-12-20T07:50:17;101205.88;;;6.21;91.39
6208;BME280;3137;51.550;7.060;2023-12-20T07:52:43;101208.41;;;6.22;91.20
6208;BME280;3137;51.550;7.060;2023-12-20T07:55:10;101203.13;;;6.22;91.47
6208;BME280;3137;51.550;7.060;2023-12-20T07:57:37;101216.06;;;6.27;91.21
6208;BME280;3137;51.550;7.060;2023-12-20T08:00:04;101209.66;;;6.29;91.54
6208;BME280;3137;51.550;7.060;2023-12-20T08:02:31;101187.56;;;6.29;90.79
6208;BME280;3137;51.550;7.060;2023-12-20T08:04:58;101191.59;;;6.34;90.29
6208;BME280;3137;51.550;7.060;2023-12-20T08:07:24;101190.97;;;6.31;90.23
6208;BME280;3137;51.550;7.060;2023-12-20T08:09:51;101179.41;;;6.32;90.36
6208;BME280;3137;51.550;7.060;2023-12-20T08:12:18;101189.88;;;6.33;90.46
6208;BME280;3137;51.550;7.060;2023-12-20T08:14:44;101188.59;;;6.39;90.42
6208;BME280;3137;51.550;7.060;2023-12-20T08:17:11;101195.81;;;6.37;90.80
6208;BME280;3137;51.550;7.060;2023-12-20T08:19:38;101187.13;;;6.35;90.74
6208;BME280;3137;51.550;7.060;2023-12-20T08:22:05;101183.53;;;6.36;90.78
6208;BME280;3137;51.550;7.060;2023-12-20T08:24:31;101192.34;;;6.36;90.48
6208;BME280;3137;51.550;7.060;2023-12-20T08:26:58;101200.41;;;6.35;90.27
6208;BME280;3137;51.550;7.060;2023-12-20T08:29:24;101195.38;;;6.43;90.44
6208;BME280;3137;51.550;7.060;2023-12-20T08:31:55;101187.31;;;6.45;90.57
6208;BME280;3137;51.550;7.060;2023-12-20T08:34:22;101198.75;;;6.45;89.87
6208;BME280;3137;51.550;7.060;2023-12-20T08:36:50;101199.50;;;6.47;89.96
6208;BME280;3137;51.550;7.060;2023-12-20T08:39:17;101203.09;;;6.46;90.15
6208;BME280;3137;51.550;7.060;2023-12-20T08:41:44;101202.16;;;6.47;89.38
6208;BME280;3137;51.550;7.060;2023-12-20T08:44:10;101204.91;;;6.46;89.68
6208;BME280;3137;51.550;7.060;2023-12-20T08:46:37;101207.47;;;6.47;89.52
6208;BME280;3137;51.550;7.060;2023-12-20T08:49:03;101203.09;;;6.46;89.75
6208;BME280;3137;51.550;7.060;2023-12-20T08:51:30;101198.66;;;6.47;89.40
6208;BME280;3137;51.550;7.060;2023-12-20T08:53:56;101198.31;;;6.51;89.42
6208;BME280;3137;51.550;7.060;2023-12-20T08:56:23;101198.41;;;6.50;89.60
6208;BME280;3137;51.550;7.060;2023-12-20T08:58:49;101194.41;;;6.44;88.84
6208;BME280;3137;51.550;7.060;2023-12-20T09:01:16;101186.84;;;6.51;89.23
6208;BME280;3137;51.550;7.060;2023-12-20T09:03:42;101192.28;;;6.49;89.02
6208;BME280;3137;51.550;7.060;2023-12-20T09:06:10;101191.63;;;6.46;88.51
6208;BME280;3137;51.550;7.060;2023-12-20T09:08:36;101184.06;;;6.52;88.85
6208;BME280;3137;51.550;7.060;2023-12-20T09:11:03;101182.47;;;6.50;88.89
6208;BME280;3137;51.550;7.060;2023-12-20T09:13:30;101188.78;;;6.49;89.28
6208;BME280;3137;51.550;7.060;2023-12-20T09:15:58;101177.66;;;6.55;88.98
6208;BME280;3137;51.550;7.060;2023-12-20T09:18:25;101174.16;;;6.54;88.98
6208;BME280;3137;51.550;7.060;2023-12-20T09:20:51;101173.44;;;6.52;88.99
6208;BME280;3137;51.550;7.060;2023-12-20T09:23:18;101176.94;;;6.53;88.24
6208;BME280;3137;51.550;7.060;2023-12-20T09:25:44;101188.69;;;6.61;88.56
6208;BME280;3137;51.550;7.060;2023-12-20T09:28:11;101174.78;;;6.58;88.16
6208;BME280;3137;51.550;7.060;2023-12-20T09:30:37;101178.19;;;6.60;88.04
6208;BME280;3137;51.550;7.060;2023-12-20T09:33:06;101181.59;;;6.62;88.29
6208;BME280;3137;51.550;7.060;2023-12-20T09:35:34;101169.25;;;6.61;87.76
6208;BME280;3137;51.550;7.060;2023-12-20T09:38:00;101165.41;;;6.65;87.68
6208;BME280;3137;51.550;7.060;2023-12-20T09:40:27;101173.13;;;6.68;87.73
6208;BME280;3137;51.550;7.060;2023-12-20T09:43:03;101174.94;;;6.67;87.96
6208;BME280;3137;51.550;7.060;2023-12-20T09:45:31;101173.13;;;6.68;88.01
6208;BME280;3137;51.550;7.060;2023-12-20T09:47:58;101184.25;;;6.62;87.78
6208;BME280;3137;51.550;7.060;2023-12-20T09:50:25;101172.63;;;6.63;88.11
6208;BME280;3137;51.550;7.060;2023-12-20T09:52:53;101183.50;;;6.60;88.34
6208;BME280;3137;51.550;7.060;2023-12-20T09:55:21;101179.75;;;6.62;88.56
6208;BME280;3137;51.550;7.060;2023-12-20T09:57:48;101175.78;;;6.68;88.30
6208;BME280;3137;51.550;7.060;2023-12-20T10:00:15;101178.69;;;6.65;88.14
6208;BME280;3137;51.550;7.060;2023-12-20T10:02:57;101182.28;;;6.64;88.26
6208;BME280;3137;51.550;7.060;2023-12-20T10:05:31;101189.19;;;6.66;88.20
6208;BME280;3137;51.550;7.060;2023-12-20T10:07:59;101186.91;;;6.62;87.78
6208;BME280;3137;51.550;7.060;2023-12-20T10:10:27;101177.94;;;6.63;88.48
6208;BME280;3137;51.550;7.060;2023-12-20T10:13:10;101181.22;;;6.66;89.02
6208;BME280;3137;51.550;7.060;2023-12-20T10:15:37;101180.84;;;6.60;89.67
6208;BME280;3137;51.550;7.060;2023-12-20T10:18:05;101176.47;;;6.59;89.55
6208;BME280;3137;51.550;7.060;2023-12-20T10:20:32;101169.47;;;6.58;90.32
6208;BME280;3137;51.550;7.060;2023-12-20T10:22:59;101169.94;;;6.52;90.50
6208;BME280;3137;51.550;7.060;2023-12-20T10:25:27;101165.63;;;6.62;90.81
6208;BME280;3137;51.550;7.060;2023-12-20T10:28:16;101166.09;;;6.56;90.47
6208;BME280;3137;51.550;7.060;2023-12-20T10:30:47;101155.22;;;6.59;90.27
6208;BME280;3137;51.550;7.060;2023-12-20T10:33:25;101156.31;;;6.56;89.90
6208;BME280;3137;51.550;7.060;2023-12-20T10:35:53;101155.56;;;6.54;90.10
6208;BME280;3137;51.550;7.060;2023-12-20T10:38:20;101140.25;;;6.58;89.97
6208;BME280;3137;51.550;7.060;2023-12-20T10:40:46;101148.84;;;6.61;89.65
6208;BME280;3137;51.550;7.060;2023-12-20T10:43:14;101158.50;;;6.62;89.88
6208;BME280;3137;51.550;7.060;2023-12-20T10:45:42;101145.22;;;6.62;90.37
6208;BME280;3137;51.550;7.060;2023-12-20T10:48:10;101154.44;;;6.69;89.86
6208;BME280;3137;51.550;7.060;2023-12-20T10:50:39;101140.41;;;6.67;89.92
6208;BME280;3137;51.550;7.060;2023-12-20T10:53:07;101139.09;;;6.73;90.04
6208;BME280;3137;51.550;7.060;2023-12-20T10:55:33;101140.41;;;6.67;89.77
6208;BME280;3137;51.550;7.060;2023-12-20T10:58:03;101135.59;;;6.72;90.00
6208;BME280;3137;51.550;7.060;2023-12-20T11:00:36;101152.47;;;6.71;89.70
6208;BME280;3137;51.550;7.060;2023-12-20T11:03:06;101152.13;;;6.76;90.26
6208;BME280;3137;51.550;7.060;2023-12-20T11:11:12;101148.56;;;6.99;89.73
6208;BME280;3137;51.550;7.060;2023-12-20T11:13:43;101145.31;;;6.96;88.75
6208;BME280;3137;51.550;7.060;2023-12-20T11:16:14;101147.34;;;6.92;89.13
6208;BME280;3137;51.550;7.060;2023-12-20T11:18:41;101151.75;;;7.04;89.07
6208;BME280;3137;51.550;7.060;2023-12-20T11:21:07;101144.47;;;6.95;89.25
6208;BME280;3137;51.550;7.060;2023-12-20T11:23:33;101136.97;;;7.00;89.46
6208;BME280;3137;51.550;7.060;2023-12-20T11:26:02;101122.34;;;6.95;90.06
6208;BME280;3137;51.550;7.060;2023-12-20T11:28:29;101125.00;;;6.95;90.71
6208;BME280;3137;51.550;7.060;2023-12-20T11:31:00;101118.94;;;6.93;90.16
6208;BME280;3137;51.550;7.060;2023-12-20T11:33:36;101123.91;;;6.97;90.85
6208;BME280;3137;51.550;7.060;2023-12-20T11:36:13;101123.22;;;6.95;90.96
6208;BME280;3137;51.550;7.060;2023-12-20T11:38:53;101123.22;;;6.95;90.62
6208;BME280;3137;51.550;7.060;2023-12-20T11:41:22;101121.00;;;6.89;90.33
6208;BME280;3137;51.550;7.060;2023-12-20T11:43:52;101126.56;;;6.86;90.90
6208;BME280;3137;51.550;7.060;2023-12-20T11:46:19;101106.03;;;6.88;90.82
6208;BME280;3137;51.550;7.060;2023-12-20T11:48:47;101111.22;;;6.89;90.91
6208;BME280;3137;51.550;7.060;2023-12-20T11:51:14;101108.31;;;6.93;91.72
6208;BME280;3137;51.550;7.060;2023-12-20T11:53:41;101114.97;;;6.87;91.34
6208;BME280;3137;51.550;7.060;2023-12-20T11:56:11;101110.47;;;6.87;91.58
6208;BME280;3137;51.550;7.060;2023-12-20T11:58:37;101109.16;;;6.93;92.38
6208;BME280;3137;51.550;7.060;2023-12-20T12:01:05;101101.19;;;6.82;91.82
6208;BME280;3137;51.550;7.060;2023-12-20T12:03:34;101108.78;;;6.75;92.28
6208;BME280;3137;51.550;7.060;2023-12-20T12:06:02;101098.28;;;6.74;93.05
6208;BME280;3137;51.550;7.060;2023-12-20T12:08:30;101085.94;;;6.62;93.31
6208;BME280;3137;51.550;7.060;2023-12-20T12:10:57;101094.13;;;6.59;93.78
6208;BME280;3137;51.550;7.060;2023-12-20T12:13:24;101106.81;;;6.55;93.80
6208;BME280;3137;51.550;7.060;2023-12-20T12:15:53;101095.47;;;6.64;93.95
6208;BME280;3137;51.550;7.060;2023-12-20T12:18:20;101094.25;;;6.57;94.39
6208;BME280;3137;51.550;7.060;2023-12-20T12:20:47;101090.63;;;6.58;94.16
6208;BME280;3137;51.550;7.060;2023-12-20T12:23:14;101087.84;;;6.60;94.29
6208;BME280;3137;51.550;7.060;2023-12-20T12:25:40;101092.22;;;6.61;94.48
6208;BME280;3137;51.550;7.060;2023-12-20T12:28:09;101085.47;;;6.68;94.19
6208;BME280;3137;51.550;7.060;2023-12-20T12:30:36;101090.31;;;6.74;93.76
6208;BME280;3137;51.550;7.060;2023-12-20T12:33:11;101092.72;;;6.77;93.78
6208;BME280;3137;51.550;7.060;2023-12-20T12:35:40;101082.81;;;6.79;93.47
6208;BME280;3137;51.550;7.060;2023-12-20T12:38:07;101081.63;;;6.83;93.34
6208;BME280;3137;51.550;7.060;2023-12-20T12:40:35;101088.25;;;6.88;93.14
6208;BME280;3137;51.550;7.060;2023-12-20T12:43:02;101070.75;;;6.86;92.46
6208;BME280;3137;51.550;7.060;2023-12-20T12:45:29;101066.91;;;6.90;92.55
6208;BME280;3137;51.550;7.060;2023-12-20T12:47:55;101063.03;;;6.94;92.29
6208;BME280;3137;51.550;7.060;2023-12-20T12:50:22;101058.31;;;6.98;91.94
6208;BME280;3137;51.550;7.060;2023-12-20T12:52:49;101045.25;;;7.06;91.35
6208;BME280;3137;51.550;7.060;2023-12-20T12:55:16;101051.31;;;7.08;91.68
6208;BME280;3137;51.550;7.060;2023-12-20T12:57:42;101052.97;;;7.09;91.21
6208;BME280;3137;51.550;7.060;2023-12-20T13:00:10;101050.97;;;7.12;91.04
6208;BME280;3137;51.550;7.060;2023-12-20T13:02:37;101061.69;;;7.11;91.48
6208;BME280;3137;51.550;7.060;2023-12-20T13:05:08;101063.03;;;7.05;91.20
6208;BME280;3137;51.550;7.060;2023-12-20T13:07:35;101041.66;;;7.07;90.97
6208;BME280;3137;51.550;7.060;2023-12-20T13:10:02;101034.63;;;7.06;91.38
6208;BME280;3137;51.550;7.060;2023-12-20T13:12:29;101033.19;;;7.13;91.45
6208;BME280;3137;51.550;7.060;2023-12-20T13:14:56;101014.59;;;7.13;90.66
6208;BME280;3137;51.550;7.060;2023-12-20T13:17:23;101020.72;;;7.13;91.19
6208;BME280;3137;51.550;7.060;2023-12-20T13:19:49;101021.34;;;7.06;90.86
6208;BME280;3137;51.550;7.060;2023-12-20T13:22:16;101024.25;;;7.03;90.51
6208;BME280;3137;51.550;7.060;2023-12-20T13:24:42;101010.72;;;7.06;90.90
6208;BME280;3137;51.550;7.060;2023-12-20T13:27:10;101017.50;;;6.99;90.90